Serena R — 9HA4200 — position and weather

sailwx.info

Track history (hours):
 
Tides and Currents Weather Stations Pressure Air Temp Water Temp Dewpoint Dewpoint Depression Visibility Wind Speed Wind Dir Waves Ship Positions

Serena R

Last reported at 2018-Jan-04 12:18 UTC. Time now 2018-Jan-24 05:57 UTC.
Position N 01°21' E 103°18'.
Warning: this ship's position is 19 days out of date.

Length 200 m; draft 11.8 m.

Type: Cargo ship. MMSI: 249325000.

Date/timePositionNaut miles runAvg speedWind from/ knotsBaromVisibWave heightAir tempDewpointWater temp
2018-Jan-04 12:18N 01°21' E 103°18'413.1
2018-Jan-04 11:59N 01°18' E 103°21'613.1
2018-Jan-04 11:30N 01°14' E 103°26'613.0
2018-Jan-04 11:01N 01°13' E 103°33'611.7
2018-Jan-04 10:30N 01°12' E 103°38'510.3
2018-Jan-04 10:01N 01°09' E 103°43'4 8.2
2018-Jan-04 09:31N 01°10' E 103°47'4 8.2
2018-Jan-04 09:00N 01°12' E 103°51'4 8.5
2018-Jan-04 08:29N 01°13' E 103°55'5 9.0
2018-Jan-04 07:59N 01°15' E 103°59'3 5.8
2018-Jan-04 07:30N 01°17' E 104°01'0 0.1
2018-Jan-04 03:37N 01°17' E 104°00'0 0.0
2018-Jan-04 03:25N 01°17' E 104°00'0 0.0
2018-Jan-04 01:04N 01°17' E 104°00'3 0.5
2018-Jan-03 19:49N 01°16' E 103°58'1 1.7
2018-Jan-03 19:30N 01°16' E 103°58'5 8.0
2018-Jan-03 18:56N 01°16' E 104°03'  
Track history (hours):
 
Tides and Currents Weather Stations Pressure Air Temp Water Temp Dewpoint Dewpoint Depression Visibility Wind Speed Wind Dir Waves Ship Positions

Serena R

Last reported at 2018-Jan-04 12:18 UTC. Time now 2018-Jan-24 05:57 UTC.
Position N 01°21' E 103°18'.
Warning: this ship's position is 19 days out of date.

Length 200 m; draft 11.8 m.

Type: Cargo ship. MMSI: 249325000.

Date/timePositionNaut miles runAvg speedWind from/ knotsBaromVisibWave heightAir tempDewpointWater temp
2018-Jan-04 12:18N 01°21' E 103°18'413.1
2018-Jan-04 11:59N 01°18' E 103°21'613.1
2018-Jan-04 11:30N 01°14' E 103°26'613.0
2018-Jan-04 11:01N 01°13' E 103°33'611.7
2018-Jan-04 10:30N 01°12' E 103°38'510.3
2018-Jan-04 10:01N 01°09' E 103°43'4 8.2
2018-Jan-04 09:31N 01°10' E 103°47'4 8.2
2018-Jan-04 09:00N 01°12' E 103°51'4 8.5
2018-Jan-04 08:29N 01°13' E 103°55'5 9.0
2018-Jan-04 07:59N 01°15' E 103°59'3 5.8
2018-Jan-04 07:30N 01°17' E 104°01'0 0.1
2018-Jan-04 03:37N 01°17' E 104°00'0 0.0
2018-Jan-04 03:25N 01°17' E 104°00'0 0.0
2018-Jan-04 01:04N 01°17' E 104°00'3 0.5
2018-Jan-03 19:49N 01°16' E 103°58'1 1.7
2018-Jan-03 19:30N 01°16' E 103°58'5 8.0
2018-Jan-03 18:56N 01°16' E 104°03'  

Dump ship's entire track history